Time;durP1;ratioP1;P1;durP2;ratioP2;P2;SDS_P1;SDS_P2;PMS_P1;PMS_P2;Temp;Humidity;BMP_temperature;BMP_pressure;BME280_temperature;BME280_humidity;BME280_pressure;Samples;Min_cycle;Max_cycle;Signal;HPM_P1;HPM_P2
2024/03/25 00:02:09;;;;;;;;;6.25;5.25;;;;;-143.90;100.00;75023.38;4814806;28;102425;-72
2024/03/25 00:04:35;;;;;;;;;5.75;3.50;;;;;-143.90;100.00;75023.38;4826172;28;102065;-72
2024/03/25 00:07:01;;;;;;;;;6.00;5.00;;;;;-143.90;100.00;75031.63;4826324;28;102356;-73
2024/03/25 00:09:27;;;;;;;;;5.00;3.50;;;;;-143.90;100.00;75029.56;4823057;28;104556;-74
2024/03/25 00:11:56;;;;;;;;;5.25;5.00;;;;;-143.90;100.00;75023.38;4838958;28;102371;-72
2024/03/25 00:14:22;;;;;;;;;5.25;5.25;;;;;-143.90;100.00;75019.22;4829717;28;102267;-72
2024/03/25 00:16:48;;;;;;;;;6.25;3.50;;;;;-143.90;100.00;75017.16;4829557;28;103517;-72
2024/03/25 00:19:14;;;;;;;;;4.00;3.00;;;;;-143.90;100.00;75017.16;4865929;28;104582;-72
2024/03/25 00:21:39;;;;;;;;;2.75;2.00;;;;;-143.90;100.00;75015.09;4857531;28;102440;-72
2024/03/25 00:24:05;;;;;;;;;5.25;3.00;;;;;-143.90;100.00;75015.09;4838318;28;102295;-72
2024/03/25 00:26:31;;;;;;;;;4.00;3.50;;;;;-143.90;100.00;75015.09;4854150;28;102626;-72
2024/03/25 00:28:56;;;;;;;;;2.25;1.75;;;;;-143.90;100.00;75015.09;4853345;28;104646;-72
2024/03/25 00:31:22;;;;;;;;;5.00;3.00;;;;;-143.90;100.00;75015.09;4872526;28;102579;-72
2024/03/25 00:33:47;;;;;;;;;5.75;5.00;;;;;-143.90;100.00;75019.22;4848623;28;102546;-71
2024/03/25 00:36:13;;;;;;;;;5.50;5.25;;;;;-143.90;100.00;75017.16;4844617;28;102661;-72
2024/03/25 00:38:39;;;;;;;;;6.00;6.00;;;;;-143.90;100.00;75021.31;4854194;28;104408;-73
2024/03/25 00:41:05;;;;;;;;;5.00;3.00;;;;;-143.90;100.00;75017.16;4853066;28;102441;-72
2024/03/25 00:43:30;;;;;;;;;2.75;2.75;;;;;-143.90;100.00;75015.09;4853028;28;102237;-73
2024/03/25 00:45:56;;;;;;;;;3.50;3.00;;;;;-143.90;100.00;75006.84;4843837;28;102260;-71
2024/03/25 00:48:22;;;;;;;;;2.00;2.00;;;;;-143.90;100.00;75006.84;4864277;28;104524;-72
2024/03/25 00:50:48;;;;;;;;;2.00;1.50;;;;;-143.90;100.00;75006.84;4848589;28;102363;-72
2024/03/25 00:53:14;;;;;;;;;1.50;1.25;;;;;-143.90;100.00;75002.69;4846744;28;102194;-73
2024/03/25 00:55:40;;;;;;;;;4.25;2.00;;;;;-143.90;100.00;74998.56;4865602;28;102479;-72
2024/03/25 00:58:06;;;;;;;;;2.00;1.00;;;;;-143.90;100.00;74994.44;4839568;28;104484;-71
2024/03/25 01:00:31;;;;;;;;;1.00;1.00;;;;;-143.90;100.00;74992.38;4849891;28;102564;-72
2024/03/25 01:02:57;;;;;;;;;2.25;2.00;;;;;-143.90;100.00;74992.38;4864621;28;102538;-72
2024/03/25 01:05:23;;;;;;;;;2.00;2.00;;;;;-143.90;100.00;74990.28;4848554;28;102276;-72
2024/03/25 01:07:49;;;;;;;;;2.00;2.00;;;;;-143.90;100.00;74982.03;4853078;28;104522;-72
2024/03/25 01:10:16;;;;;;;;;2.00;2.00;;;;;-143.90;100.00;74986.16;4845537;28;102820;-71
2024/03/25 01:12:42;;;;;;;;;3.00;2.00;;;;;-143.90;100.00;74988.22;4855463;28;101995;-72
2024/03/25 01:15:09;;;;;;;;;1.75;1.00;;;;;-143.90;100.00;74982.03;4848584;28;102259;-72
2024/03/25 01:17:38;;;;;;;;;3.50;2.50;;;;;-143.90;100.00;74977.88;4848368;28;104749;-72
2024/03/25 01:20:08;;;;;;;;;2.00;1.75;;;;;-143.90;100.00;74982.03;4835938;28;102656;-72
2024/03/25 01:22:34;;;;;;;;;2.50;2.00;;;;;-143.90;100.00;74998.56;4854898;28;102475;-71
2024/03/25 01:25:00;;;;;;;;;3.00;1.75;;;;;-143.90;100.00;74994.44;4871189;28;102616;-72
2024/03/25 01:27:25;;;;;;;;;2.25;1.00;;;;;-143.90;100.00;74994.44;4851246;28;104946;-72
2024/03/25 01:29:54;;;;;;;;;2.00;2.00;;;;;-143.90;100.00;74994.44;4841287;28;102156;-72
2024/03/25 01:32:19;;;;;;;;;2.50;2.00;;;;;-143.90;100.00;74996.50;4856658;28;102108;-72
2024/03/25 01:34:45;;;;;;;;;2.00;1.00;;;;;-143.90;100.00;75004.75;4861997;28;102507;-72
2024/03/25 01:37:11;;;;;;;;;2.00;2.00;;;;;-143.90;100.00;75017.16;4849364;28;104660;-72
2024/03/25 01:39:38;;;;;;;;;3.00;2.75;;;;;-143.90;100.00;75023.38;4847164;28;102080;-72
2024/03/25 01:42:04;;;;;;;;;2.00;2.00;;;;;-143.90;100.00;75033.72;4838158;28;102723;-70
2024/03/25 01:44:30;;;;;;;;;2.50;2.00;;;;;-143.90;100.00;75033.72;4856672;28;102523;-72
2024/03/25 01:46:55;;;;;;;;;3.00;2.00;;;;;-143.90;100.00;75035.78;4856247;28;102690;-72
2024/03/25 01:49:21;;;;;;;;;1.00;1.00;;;;;-143.90;100.00;75035.78;4848639;28;102462;-73
2024/03/25 01:51:48;;;;;;;;;1.25;1.25;;;;;-143.90;100.00;75035.78;4856167;28;102753;-73
2024/03/25 01:54:16;;;;;;;;;2.00;2.00;;;;;-143.90;100.00;75039.91;4837803;28;102709;-72
2024/03/25 01:56:43;;;;;;;;;2.00;2.00;;;;;-143.90;100.00;75039.91;4849644;28;104564;-72
2024/03/25 01:59:09;;;;;;;;;1.00;1.00;;;;;-143.90;100.00;75031.63;4850914;28;103361;-72
2024/03/25 02:01:36;;;;;;;;;2.00;2.00;;;;;-143.90;100.00;75019.22;4845542;28;101950;-72
2024/03/25 02:04:02;;;;;;;;;2.00;1.25;;;;;-143.90;100.00;75025.44;4834358;28;104062;-72
2024/03/25 02:06:30;;;;;;;;;2.00;1.25;;;;;-143.90;100.00;75029.56;4849199;28;104871;-73
2024/03/25 02:08:57;;;;;;;;;1.75;1.25;;;;;-143.90;100.00;75031.63;4854979;28;102493;-73
2024/03/25 02:11:23;;;;;;;;;2.00;1.75;;;;;-143.90;100.00;75025.44;4846835;28;102468;-72
2024/03/25 02:13:50;;;;;;;;;4.00;2.00;;;;;-143.90;100.00;75035.78;4849897;28;103867;-72
2024/03/25 02:16:16;;;;;;;;;2.25;2.00;;;;;-143.90;100.00;75037.84;4834976;28;103650;-72
2024/03/25 02:18:41;;;;;;;;;5.00;3.00;;;;;-143.90;100.00;75048.19;4851176;28;102751;-72
2024/03/25 02:21:07;;;;;;;;;1.00;1.00;;;;;-143.90;100.00;75050.25;4851307;28;102499;-72
2024/03/25 02:23:36;;;;;;;;;1.50;1.00;;;;;-143.90;100.00;75058.50;4871983;28;103004;-72
2024/03/25 02:26:02;;;;;;;;;1.00;1.00;;;;;-143.90;100.00;75068.84;4840835;28;109159;-73
2024/03/25 02:28:27;;;;;;;;;5.25;4.00;;;;;-143.90;100.00;75072.97;4845887;28;102423;-72
2024/03/25 02:30:53;;;;;;;;;3.00;3.00;;;;;-143.90;100.00;75081.25;4863517;28;102399;-72
2024/03/25 02:33:18;;;;;;;;;5.00;3.00;;;;;-143.90;100.00;75087.47;4843240;28;102256;-72
2024/03/25 02:35:44;;;;;;;;;3.00;3.00;;;;;-143.90;100.00;75089.53;4848315;28;104393;-72
2024/03/25 02:38:10;;;;;;;;;4.75;2.00;;;;;-143.90;100.00;75097.78;4851541;28;102473;-72
2024/03/25 02:40:37;;;;;;;;;3.00;3.00;;;;;-143.90;100.00;75097.78;4846262;28;102294;-71
2024/03/25 02:43:03;;;;;;;;;5.00;2.50;;;;;-143.90;100.00;75108.13;4842163;28;102559;-72
2024/03/25 02:45:29;;;;;;;;;3.50;2.00;;;;;-143.90;100.00;75110.19;4847862;28;105592;-72
2024/03/25 02:47:55;;;;;;;;;2.50;2.00;;;;;-143.90;100.00;75106.06;4844313;28;102972;-71
2024/03/25 02:50:20;;;;;;;;;3.00;3.00;;;;;-143.90;100.00;75106.06;4844468;28;102482;-72
2024/03/25 02:52:46;;;;;;;;;2.00;2.00;;;;;-143.90;100.00;75101.94;4848909;28;102248;-72
2024/03/25 02:55:11;;;;;;;;;5.00;2.50;;;;;-143.90;100.00;75093.66;4848822;28;104532;-72
2024/03/25 02:57:37;;;;;;;;;5.25;3.00;;;;;-143.90;100.00;75093.66;4849301;28;102312;-72
2024/03/25 03:00:04;;;;;;;;;5.25;3.00;;;;;-143.90;100.00;75087.47;4862756;28;102230;-72
2024/03/25 03:02:30;;;;;;;;;5.75;4.50;;;;;-143.90;100.00;75081.25;4853915;28;102453;-72
2024/03/25 03:04:55;;;;;;;;;2.00;2.00;;;;;-143.90;100.00;75077.13;4852683;28;104779;-72
2024/03/25 03:07:21;;;;;;;;;1.00;1.00;;;;;-143.90;100.00;75072.97;4846132;28;102565;-72
2024/03/25 03:09:46;;;;;;;;;3.00;3.00;;;;;-143.90;100.00;75072.97;4851054;28;102398;-73
2024/03/25 03:12:12;;;;;;;;;2.00;2.00;;;;;-143.90;100.00;75066.78;4847763;28;102565;-74
2024/03/25 03:14:37;;;;;;;;;6.25;3.00;;;;;-143.90;100.00;75064.72;4848704;28;104621;-72
2024/03/25 03:17:04;;;;;;;;;3.50;3.00;;;;;-143.90;100.00;75064.72;4851329;28;102456;-72
2024/03/25 03:19:30;;;;;;;;;5.25;5.25;;;;;-143.90;100.00;75070.91;4847351;28;102123;-73
2024/03/25 03:21:56;;;;;;;;;3.50;3.00;;;;;-143.90;100.00;75062.66;4854431;28;103145;-71
2024/03/25 03:24:22;;;;;;;;;5.00;2.00;;;;;-143.90;100.00;75068.84;4865072;28;104598;-72
2024/03/25 03:26:48;;;;;;;;;2.25;2.00;;;;;-143.90;100.00;75064.72;4857001;28;102168;-71
2024/03/25 03:29:14;;;;;;;;;3.00;2.00;;;;;-143.90;100.00;75060.59;4868184;28;102070;-71
2024/03/25 03:31:40;;;;;;;;;2.75;2.00;;;;;-143.90;100.00;75068.84;4847352;28;102230;-71
2024/03/25 03:34:06;;;;;;;;;2.25;2.00;;;;;-143.90;100.00;75056.44;4842718;28;104519;-70
2024/03/25 03:36:31;;;;;;;;;2.25;2.00;;;;;-143.90;100.00;75054.38;4851821;28;102462;-72
2024/03/25 03:38:57;;;;;;;;;1.00;1.00;;;;;-143.90;100.00;75052.31;4851132;28;102415;-72
2024/03/25 03:41:22;;;;;;;;;2.75;1.00;;;;;-143.90;100.00;75050.25;4845132;28;102503;-72
2024/03/25 03:43:48;;;;;;;;;0.75;0.75;;;;;-143.90;100.00;75044.03;4864774;28;104658;-72
2024/03/25 03:46:14;;;;;;;;;2.00;2.00;;;;;-143.90;100.00;75054.38;4844403;28;101920;-73
2024/03/25 03:48:40;;;;;;;;;2.00;1.00;;;;;-143.90;100.00;75050.25;4846909;28;102378;-72
2024/03/25 03:51:06;;;;;;;;;2.50;0.75;;;;;-143.90;100.00;75048.19;4874317;28;102049;-73
2024/03/25 03:53:33;;;;;;;;;0.25;0.25;;;;;-143.90;100.00;75054.38;4847041;28;107965;-72
2024/03/25 03:56:06;;;;;;;;;2.50;2.25;;;;;-143.90;100.00;75052.31;4842800;28;102840;-72
2024/03/25 03:58:32;;;;;;;;;1.00;1.00;;;;;-143.90;100.00;75052.31;4853140;28;102216;-73
2024/03/25 04:00:59;;;;;;;;;5.25;2.75;;;;;-143.90;100.00;75054.38;4851459;28;102776;-73
2024/03/25 04:03:24;;;;;;;;;1.00;1.00;;;;;-143.90;100.00;75052.31;4847188;28;104661;-72
2024/03/25 04:05:50;;;;;;;;;1.00;1.00;;;;;-143.90;100.00;75056.44;4845426;28;103144;-73
2024/03/25 04:08:16;;;;;;;;;1.75;1.00;;;;;-143.90;100.00;75054.38;4845174;28;102388;-73
2024/03/25 04:10:43;;;;;;;;;1.00;1.00;;;;;-143.90;100.00;75048.19;4852933;28;102770;-72
2024/03/25 04:13:09;;;;;;;;;2.00;1.00;;;;;-143.90;100.00;75052.31;4858431;28;104715;-72
2024/03/25 04:15:35;;;;;;;;;1.50;1.00;;;;;-143.90;100.00;75052.31;4857819;28;101991;-73
2024/03/25 04:18:01;;;;;;;;;3.00;2.50;;;;;-143.90;100.00;75054.38;4827812;28;102459;-72
2024/03/25 04:20:31;;;;;;;;;3.00;1.25;;;;;-143.90;100.00;75050.25;4849361;28;103193;-73
2024/03/25 04:22:57;;;;;;;;;2.25;2.00;;;;;-143.90;100.00;75048.19;4826015;28;104606;-73
2024/03/25 04:25:22;;;;;;;;;3.00;2.25;;;;;-143.90;100.00;75048.19;4832018;28;102646;-73
2024/03/25 04:27:48;;;;;;;;;2.25;2.25;;;;;-143.90;100.00;75048.19;4827526;28;102163;-73
2024/03/25 04:30:14;;;;;;;;;3.50;3.50;;;;;-143.90;100.00;75054.38;4819419;28;102625;-73
2024/03/25 04:32:40;;;;;;;;;3.00;3.00;;;;;-143.90;100.00;75056.44;4825776;28;104595;-72
2024/03/25 04:35:07;;;;;;;;;2.00;2.00;;;;;-143.90;100.00;75060.59;4834772;28;102205;-73
2024/03/25 04:37:34;;;;;;;;;4.50;2.50;;;;;-143.90;100.00;75052.31;4831235;28;104628;-72
2024/03/25 04:40:00;;;;;;;;;3.50;3.50;;;;;-143.90;100.00;75048.19;4818607;28;103746;-72
2024/03/25 04:42:26;;;;;;;;;5.00;3.00;;;;;-143.90;100.00;75039.91;4844382;28;103285;-72
2024/03/25 04:44:52;;;;;;;;;4.00;3.00;;;;;-143.90;100.00;75035.78;4843211;28;102089;-72
2024/03/25 04:47:18;;;;;;;;;2.50;2.50;;;;;-143.90;100.00;75029.56;4829693;28;102360;-73
2024/03/25 04:49:44;;;;;;;;;5.50;4.50;;;;;-143.90;100.00;75021.31;4831936;28;102560;-72
2024/03/25 04:52:13;;;;;;;;;4.00;2.75;;;;;-143.90;100.00;75029.56;4820577;28;102681;-72
2024/03/25 04:54:39;;;;;;;;;5.25;5.00;;;;;-143.90;100.00;75023.38;4838488;28;105826;-73
2024/03/25 04:57:06;;;;;;;;;3.00;2.00;;;;;-143.90;100.00;75019.22;4844293;28;103552;-73
2024/03/25 04:59:32;;;;;;;;;6.50;5.00;;;;;-143.90;100.00;75025.44;4832937;28;102563;-73
2024/03/25 05:01:57;;;;;;;;;6.00;5.25;;;;;-143.90;100.00;75019.22;4821248;28;105017;-72
2024/03/25 05:04:24;;;;;;;;;10.50;7.00;;;;;-143.90;100.00;75027.50;4828384;28;102504;-72
2024/03/25 05:06:50;;;;;;;;;6.75;6.00;;;;;-143.90;100.00;75031.63;4825257;28;103447;-72
2024/03/25 05:09:16;;;;;;;;;8.25;6.50;;;;;-143.90;100.00;75027.50;4828964;28;105036;-73
2024/03/25 05:11:42;;;;;;;;;9.00;7.50;;;;;-143.90;100.00;75044.03;4828343;28;105255;-73
2024/03/25 05:14:08;;;;;;;;;8.00;6.75;;;;;-143.90;100.00;75048.19;4818562;28;105042;-73
2024/03/25 05:16:33;;;;;;;;;10.50;8.50;;;;;-143.90;100.00;75056.44;4828723;28;102223;-73
2024/03/25 05:18:59;;;;;;;;;8.00;8.00;;;;;-143.90;100.00;75079.19;4827458;28;103539;-73
2024/03/25 05:21:24;;;;;;;;;10.00;9.00;;;;;-143.90;100.00;75085.38;4828048;28;104530;-74
2024/03/25 05:23:50;;;;;;;;;9.00;9.00;;;;;-143.90;100.00;75081.25;4829551;28;102003;-73
2024/03/25 05:26:16;;;;;;;;;6.00;5.00;;;;;-143.90;100.00;75077.13;4831998;28;102351;-72
2024/03/25 05:28:42;;;;;;;;;10.25;6.25;;;;;-143.90;100.00;75081.25;4827444;28;102095;-72
2024/03/25 05:31:08;;;;;;;;;9.50;6.00;;;;;-143.90;100.00;75079.19;4832116;28;104857;-74
2024/03/25 05:33:35;;;;;;;;;8.00;5.25;;;;;-143.90;100.00;75072.97;4838571;28;102474;-73
2024/03/25 05:36:01;;;;;;;;;6.00;5.00;;;;;-143.90;100.00;75064.72;4817741;28;102233;-73
2024/03/25 05:38:28;;;;;;;;;2.75;2.75;;;;;-143.90;100.00;75064.72;4832868;28;102564;-72
2024/03/25 05:40:53;;;;;;;;;2.00;1.75;;;;;-143.90;100.00;75056.44;4827877;28;104549;-72
2024/03/25 05:43:20;;;;;;;;;2.00;1.75;;;;;-143.90;100.00;75046.09;4826832;28;102566;-72
2024/03/25 05:45:55;;;;;;;;;2.50;1.75;;;;;-143.90;100.00;75048.19;4820317;28;103276;-72
2024/03/25 05:48:22;;;;;;;;;2.75;2.50;;;;;-143.90;100.00;75046.09;4827986;28;102112;-73
2024/03/25 05:51:02;;;;;;;;;9.25;6.75;;;;;-143.90;100.00;75039.91;4830772;28;104521;-73
2024/03/25 05:53:28;;;;;;;;;6.25;5.50;;;;;-143.90;100.00;75031.63;4834819;28;104922;-73
2024/03/25 05:55:54;;;;;;;;;5.00;2.00;;;;;-143.90;100.00;75029.56;4821327;28;102534;-74
2024/03/25 05:58:20;;;;;;;;;6.75;6.25;;;;;-143.90;100.00;75015.09;4822043;28;102528;-73
2024/03/25 06:00:49;;;;;;;;;9.25;8.00;;;;;-143.90;100.00;75017.16;4822802;28;104751;-73
2024/03/25 06:03:16;;;;;;;;;8.00;7.00;;;;;-143.90;100.00;75006.84;4830667;28;102523;-72
2024/03/25 06:05:42;;;;;;;;;11.00;8.00;;;;;-143.90;100.00;75000.63;4829013;28;102197;-72
2024/03/25 06:08:15;;;;;;;;;6.50;5.50;;;;;-143.90;100.00;74990.28;4824762;28;102447;-72
2024/03/25 06:10:41;;;;;;;;;11.00;9.00;;;;;-143.90;100.00;74990.28;4828979;28;107985;-72
2024/03/25 06:13:07;;;;;;;;;14.00;11.00;;;;;-143.90;100.00;75015.09;4834383;28;102066;-75
2024/03/25 06:15:32;;;;;;;;;11.00;10.00;;;;;-143.90;100.00;75002.69;4850371;28;102334;-73
2024/03/25 06:17:58;;;;;;;;;9.25;7.00;;;;;-143.90;100.00;74998.56;4816533;28;102281;-72
2024/03/25 06:20:24;;;;;;;;;9.50;8.00;;;;;-143.90;100.00;74992.38;4825289;28;105198;-74
2024/03/25 06:22:50;;;;;;;;;9.25;7.75;;;;;-143.90;100.00;74979.97;4827132;28;102679;-73
2024/03/25 06:25:17;;;;;;;;;13.25;9.50;;;;;-143.90;100.00;74982.03;4828123;28;102226;-74
2024/03/25 06:27:43;;;;;;;;;11.00;9.00;;;;;-143.90;100.00;74969.63;4836295;28;102679;-73
2024/03/25 06:35:38;;;;;;;;;14.50;12.75;;;;;-143.90;100.00;74982.03;4841752;28;102412;-73
2024/03/25 06:38:04;;;;;;;;;11.25;11.00;;;;;-143.90;100.00;74969.63;4837573;28;102073;-72
2024/03/25 06:40:30;;;;;;;;;10.50;10.00;;;;;-143.90;100.00;74955.16;4833190;28;103387;-72
2024/03/25 06:42:57;;;;;;;;;9.50;7.00;;;;;-143.90;100.00;74938.59;4829143;28;102114;-73
2024/03/25 06:45:22;;;;;;;;;11.75;7.75;;;;;-143.90;100.00;74932.41;4829870;28;102039;-73
2024/03/25 06:47:48;;;;;;;;;14.25;12.25;;;;;-143.90;100.00;74934.47;4831882;28;102805;-73
2024/03/25 06:50:14;;;;;;;;;13.50;11.50;;;;;-143.90;100.00;74955.16;4822563;28;107661;-74
2024/03/25 06:52:40;;;;;;;;;16.00;11.75;;;;;-143.90;100.00;74961.34;4832838;28;103109;-73
2024/03/25 06:55:06;;;;;;;;;10.50;10.50;;;;;-143.90;100.00;74953.09;4828014;28;102319;-75
2024/03/25 06:57:32;;;;;;;;;11.75;10.00;;;;;-143.90;100.00;74957.22;4826615;28;102699;-74
2024/03/25 06:59:57;;;;;;;;;12.00;10.75;;;;;-143.90;100.00;74977.88;4832322;28;104836;-73
2024/03/25 07:02:23;;;;;;;;;10.75;9.50;;;;;-143.90;100.00;74969.63;4828770;28;102367;-73
2024/03/25 07:04:49;;;;;;;;;11.00;11.00;;;;;-143.90;100.00;74969.63;4824623;28;102537;-74
2024/03/25 07:07:14;;;;;;;;;10.00;9.75;;;;;-143.90;100.00;74965.50;4826681;28;102771;-73
2024/03/25 07:09:40;;;;;;;;;11.25;10.50;;;;;-143.90;100.00;74946.88;4826937;28;104863;-71
2024/03/25 07:12:07;;;;;;;;;8.00;7.00;;;;;-143.90;100.00;74938.59;4824949;28;105037;-73
2024/03/25 07:14:32;;;;;;;;;13.50;12.00;;;;;-143.90;100.00;74928.28;4829105;28;102355;-73
2024/03/25 07:16:58;;;;;;;;;12.00;11.00;;;;;-143.90;100.00;74926.22;4830796;28;102941;-73
2024/03/25 07:19:24;;;;;;;;;11.00;11.00;;;;;-143.90;100.00;74909.66;4850543;28;104744;-73
2024/03/25 07:21:50;;;;;;;;;14.25;12.75;;;;;-143.90;100.00;74913.81;4848925;28;102669;-73
2024/03/25 07:24:15;;;;;;;;;8.00;8.00;;;;;-143.90;100.00;74895.19;4840817;28;102440;-73
2024/03/25 07:26:41;;;;;;;;;10.50;9.25;;;;;-143.90;100.00;74876.59;4850593;28;102159;-72
2024/03/25 07:29:07;;;;;;;;;9.25;8.50;;;;;-143.90;100.00;74886.94;4874713;28;103196;-73
2024/03/25 07:31:33;;;;;;;;;11.00;10.00;;;;;-143.90;100.00;74878.66;4848942;28;102320;-72
2024/03/25 07:33:58;;;;;;;;;13.00;12.00;;;;;-143.90;100.00;74874.53;4839593;28;102717;-72
2024/03/25 07:36:24;;;;;;;;;13.00;11.75;;;;;-143.90;100.00;74882.78;4851568;28;102690;-73
2024/03/25 07:38:50;;;;;;;;;12.25;11.00;;;;;-143.90;100.00;74905.53;4852175;28;104692;-73
2024/03/25 07:41:15;;;;;;;;;16.50;13.00;;;;;-143.90;100.00;74903.47;4853613;28;102480;-72
2024/03/25 07:43:41;;;;;;;;;10.50;9.25;;;;;-143.90;100.00;74895.19;4864779;28;102059;-72
2024/03/25 07:46:06;;;;;;;;;13.00;12.25;;;;;-143.90;100.00;74895.19;4845197;28;102448;-73
2024/03/25 07:48:32;;;;;;;;;16.75;13.00;;;;;-143.90;100.00;74901.41;4853642;28;104466;-73
2024/03/25 07:50:58;;;;;;;;;11.00;10.00;;;;;-143.90;100.00;74891.06;4849100;28;102442;-73
2024/03/25 07:53:23;;;;;;;;;8.00;7.00;;;;;-143.90;100.00;74886.94;4850572;28;102011;-73
2024/03/25 07:55:51;;;;;;;;;16.00;10.75;;;;;-143.90;100.00;74917.94;4851983;28;102313;-73
2024/03/25 07:58:17;;;;;;;;;14.50;12.50;;;;;-143.90;100.00;74909.66;4847060;28;103879;-73
2024/03/25 08:00:42;;;;;;;;;12.00;12.00;;;;;-143.90;100.00;74911.72;4849267;28;102279;-72
2024/03/25 08:03:08;;;;;;;;;12.75;12.25;;;;;-143.90;100.00;74920.00;4852064;28;102598;-73
2024/03/25 08:05:33;;;;;;;;;12.00;10.50;;;;;-143.90;100.00;74924.13;4851749;28;102269;-73
2024/03/25 08:07:59;;;;;;;;;10.75;9.00;;;;;-143.90;100.00;74928.28;4837142;28;104442;-72
2024/03/25 08:10:25;;;;;;;;;12.25;10.50;;;;;-143.90;100.00;74946.88;4870629;28;102484;-73
2024/03/25 08:12:50;;;;;;;;;13.75;12.25;;;;;-143.90;100.00;74944.81;4852674;28;104649;-72
2024/03/25 08:15:16;;;;;;;;;13.50;11.50;;;;;-143.90;100.00;74936.53;4850199;28;102021;-72
2024/03/25 08:17:42;;;;;;;;;12.00;12.00;;;;;-143.90;100.00;74932.41;4849855;28;104616;-72
2024/03/25 08:20:08;;;;;;;;;13.25;12.75;;;;;-143.90;100.00;74930.34;4843770;28;104851;-72
2024/03/25 08:22:34;;;;;;;;;19.75;14.75;;;;;-143.90;100.00;74967.56;4845026;28;105034;-72
2024/03/25 08:24:59;;;;;;;;;12.75;11.50;;;;;-143.90;100.00;74948.94;4846378;28;102960;-72
2024/03/25 08:27:25;;;;;;;;;17.75;15.00;;;;;-143.90;100.00;74965.50;4852623;28;105130;-73
2024/03/25 08:29:53;;;;;;;;;14.50;13.50;;;;;-143.90;100.00;74977.88;4853648;28;102313;-73
2024/03/25 08:32:19;;;;;;;;;15.75;13.25;;;;;-143.90;100.00;74994.44;4848156;28;102369;-73
2024/03/25 08:34:45;;;;;;;;;13.25;11.00;;;;;-143.90;100.00;74988.22;4855372;28;102301;-72
2024/03/25 08:37:11;;;;;;;;;16.00;13.50;;;;;-143.90;100.00;75008.91;4859914;28;104420;-72
2024/03/25 08:39:36;;;;;;;;;13.00;12.00;;;;;-143.90;100.00;75000.63;4851793;28;102528;-72
2024/03/25 08:42:02;;;;;;;;;12.00;12.00;;;;;-143.90;100.00;75002.69;4844142;28;102890;-72
2024/03/25 08:44:28;;;;;;;;;17.00;15.75;;;;;-143.90;100.00;75010.97;4851975;28;102383;-73
2024/03/25 08:46:53;;;;;;;;;14.50;13.00;;;;;-143.90;100.00;75013.03;4851280;28;104554;-73
2024/03/25 08:49:19;;;;;;;;;12.25;12.00;;;;;-143.90;100.00;74998.56;4853577;28;103014;-73
2024/03/25 08:51:45;;;;;;;;;17.25;16.00;;;;;-143.90;100.00;75015.09;4852215;28;101959;-73
2024/03/25 08:54:10;;;;;;;;;17.00;13.00;;;;;-143.90;100.00;75017.16;4850274;28;102226;-74
2024/03/25 08:56:36;;;;;;;;;17.25;15.25;;;;;-143.90;100.00;75004.75;4853333;28;104561;-73
2024/03/25 08:59:02;;;;;;;;;16.00;15.00;;;;;-143.90;100.00;75002.69;4855577;28;104942;-73
2024/03/25 09:01:27;;;;;;;;;17.00;15.50;;;;;-143.90;100.00;74982.03;4845122;28;102215;-73
2024/03/25 09:03:54;;;;;;;;;17.75;13.00;;;;;-143.90;100.00;74944.81;4858587;28;102432;-74
2024/03/25 09:06:19;;;;;;;;;18.75;15.00;;;;;-143.90;100.00;74924.13;4512774;28;10000095;-73
2024/03/25 09:11:29;;;;;;;;;15.00;13.00;;;;;-143.90;100.00;74868.31;4852123;28;102194;-74
2024/03/25 09:13:54;;;;;;;;;17.25;14.00;;;;;-143.90;100.00;74849.72;4850576;28;104521;-74
2024/03/25 09:16:20;;;;;;;;;12.25;12.00;;;;;-143.90;100.00;74876.59;4845718;28;105468;-73
2024/03/25 09:18:49;;;;;;;;;12.50;10.75;;;;;-143.90;100.00;74878.66;4848260;28;103015;-75
2024/03/25 09:21:15;;;;;;;;;9.00;8.00;;;;;-143.90;100.00;74858.00;4858111;28;101929;-72
2024/03/25 09:23:41;;;;;;;;;8.00;7.00;;;;;-143.90;100.00;74835.25;4856642;28;102018;-73
2024/03/25 09:26:06;;;;;;;;;7.25;7.25;;;;;-143.90;100.00;74824.91;4840150;28;102754;-72
2024/03/25 09:28:32;;;;;;;;;8.75;8.50;;;;;-143.90;100.00;74814.56;4852315;28;104396;-73
2024/03/25 09:30:58;;;;;;;;;6.75;6.75;;;;;-143.90;100.00;74810.44;4851429;28;102759;-72
2024/03/25 09:33:23;;;;;;;;;8.75;7.00;;;;;-143.90;100.00;74808.38;4855982;28;102265;-73
2024/03/25 09:35:49;;;;;;;;;8.25;7.75;;;;;-143.90;100.00;74800.09;4852748;28;101968;-73
2024/03/25 09:38:15;;;;;;;;;7.00;6.75;;;;;-143.90;100.00;74816.66;4841263;28;104519;-71
2024/03/25 09:40:41;;;;;;;;;7.25;7.00;;;;;-143.90;100.00;74841.44;4854583;28;102486;-72
2024/03/25 09:43:17;;;;;;;;;9.25;7.25;;;;;-143.90;100.00;74822.84;4855986;28;101972;-72
2024/03/25 09:45:48;;;;;;;;;7.50;7.50;;;;;-143.90;100.00;74818.72;4863671;28;102125;-71
2024/03/25 09:48:16;;;;;;;;;12.75;11.25;;;;;-143.90;100.00;74849.72;4837236;28;110159;-72
2024/03/25 09:50:43;;;;;;;;;9.25;8.00;;;;;-143.90;100.00;74804.25;4852678;28;102880;-72
2024/03/25 09:53:09;;;;;;;;;7.50;7.50;;;;;-143.90;100.00;74795.97;4851893;28;102626;-73
2024/03/25 09:55:38;;;;;;;;;7.75;7.00;;;;;-143.90;100.00;74806.31;4851158;28;102110;-74
2024/03/25 09:58:05;;;;;;;;;6.00;6.00;;;;;-143.90;100.00;74841.44;4841774;28;105633;-73
2024/03/25 10:00:30;;;;;;;;;4.50;3.50;;;;;-143.90;100.00;74849.72;4854347;28;104738;-73
2024/03/25 10:02:56;;;;;;;;;9.00;5.00;;;;;-143.90;100.00;74804.25;4850435;28;102525;-73
2024/03/25 10:05:21;;;;;;;;;4.00;4.00;;;;;-143.90;100.00;74810.44;4853686;28;102396;-74
2024/03/25 10:07:47;;;;;;;;;6.00;6.00;;;;;-143.90;100.00;74810.44;4858477;28;104566;-73
2024/03/25 10:10:13;;;;;;;;;6.50;4.50;;;;;-143.90;100.00;74779.44;4854841;28;102083;-72
2024/03/25 10:12:41;;;;;;;;;7.25;6.75;;;;;-143.90;100.00;74789.78;4855658;28;102043;-73
2024/03/25 10:15:06;;;;;;;;;5.00;4.00;;;;;-143.90;100.00;74800.09;4853572;28;102816;-74
2024/03/25 10:17:32;;;;;;;;;5.00;5.00;;;;;-143.90;100.00;74812.50;4850586;28;104471;-73
2024/03/25 10:19:58;;;;;;;;;4.00;4.00;;;;;-143.90;100.00;74802.16;4845608;28;102593;-73
2024/03/25 10:22:24;;;;;;;;;6.00;4.50;;;;;-143.90;100.00;74822.84;4850482;28;101923;-73
2024/03/25 10:24:50;;;;;;;;;5.75;4.00;;;;;-143.90;100.00;74800.09;4846417;28;102228;-73
2024/03/25 10:27:21;;;;;;;;;5.75;5.75;;;;;-143.90;100.00;74826.97;4853470;28;104561;-73
2024/03/25 10:29:48;;;;;;;;;6.50;6.50;;;;;-143.90;100.00;74820.78;4844483;28;102538;-74
2024/03/25 10:32:14;;;;;;;;;6.00;6.00;;;;;-143.90;100.00;74833.19;4839677;28;102585;-71
2024/03/25 10:34:40;;;;;;;;;7.75;5.75;;;;;-143.90;100.00;74843.53;4849667;28;105378;-73
2024/03/25 10:37:09;;;;;;;;;4.00;4.00;;;;;-143.90;100.00;74878.66;4845296;28;102699;-73
2024/03/25 10:39:43;;;;;;;;;8.75;7.00;;;;;-143.90;100.00;74851.78;4862014;28;102555;-73
2024/03/25 10:42:13;;;;;;;;;6.75;6.00;;;;;-143.90;100.00;74824.91;4842965;28;103751;-73
2024/03/25 10:44:40;;;;;;;;;6.00;6.00;;;;;-143.90;100.00;74820.78;4870320;28;102335;-73
2024/03/25 10:47:08;;;;;;;;;7.75;7.00;;;;;-143.90;100.00;74820.78;4852233;28;104533;-72
2024/03/25 10:49:55;;;;;;;;;6.00;6.00;;;;;-143.90;100.00;74783.56;4855051;28;102385;-72
2024/03/25 10:52:21;;;;;;;;;5.50;5.50;;;;;-143.90;100.00;74783.56;4838372;28;102358;-72
2024/03/25 10:54:49;;;;;;;;;4.00;4.00;;;;;-143.90;100.00;74802.16;4844424;28;103161;-72
2024/03/25 10:57:16;;;;;;;;;4.00;4.00;;;;;-143.90;100.00;74779.44;4847845;28;104534;-72
2024/03/25 10:59:43;;;;;;;;;3.75;3.75;;;;;-143.90;100.00;74717.41;4856926;28;101962;-72
2024/03/25 11:02:10;;;;;;;;;7.25;6.00;;;;;-143.90;100.00;74667.81;4848686;28;108185;-73